Time;durP1;ratioP1;P1;durP2;ratioP2;P2;SDS_P1;SDS_P2;PMS_P1;PMS_P2;Temp;Humidity;BMP_temperature;BMP_pressure;BME280_temperature;BME280_humidity;BME280_pressure;Samples;Min_cycle;Max_cycle;Signal;HPM_P1;HPM_P2
2023/01/19 00:00:11;;;;;;;12.55;4.65;;;3.40;99.90;;;;;;5098083;28;20057;-88
2023/01/19 00:02:37;;;;;;;11.27;5.00;;;3.10;99.90;;;;;;5077840;28;20044;-88
2023/01/19 00:05:04;;;;;;;11.13;4.75;;;3.10;99.90;;;;;;5068201;28;20043;-87
2023/01/19 00:07:30;;;;;;;11.73;5.00;;;3.00;99.90;;;;;;5066171;28;20032;-85
2023/01/19 00:09:56;;;;;;;10.07;4.35;;;4.20;99.90;;;;;;5067644;28;20122;-86
2023/01/19 00:12:23;;;;;;;10.23;4.20;;;3.00;99.90;;;;;;5070298;28;21372;-88
2023/01/19 00:14:48;;;;;;;8.93;4.07;;;3.00;99.90;;;;;;5072412;28;20440;-88
2023/01/19 00:17:14;;;;;;;10.55;4.30;;;3.00;99.90;;;;;;5067195;28;20094;-87
2023/01/19 00:19:40;;;;;;;11.82;4.82;;;;;;;;;;5092542;28;20061;-87
2023/01/19 00:22:06;;;;;;;10.07;4.35;;;3.00;99.90;;;;;;5065205;28;20090;-86
2023/01/19 00:24:32;;;;;;;9.85;4.05;;;4.80;99.90;;;;;;5056352;28;20131;-88
2023/01/19 00:26:58;;;;;;;9.80;4.47;;;3.00;99.90;;;;;;5078296;28;20035;-86
2023/01/19 00:29:24;;;;;;;10.98;4.20;;;3.00;99.90;;;;;;5070154;28;20039;-87
2023/01/19 00:31:50;;;;;;;9.85;4.30;;;4.60;99.90;;;;;;5090869;28;20119;-87
2023/01/19 00:34:16;;;;;;;10.40;4.15;;;3.00;99.90;;;;;;5076073;28;20039;-87
2023/01/19 00:36:42;;;;;;;9.98;4.43;;;3.00;99.90;;;;;;5053025;28;21639;-87
2023/01/19 00:39:08;;;;;;;12.25;4.38;;;;;;;;;;5086034;28;21075;-87
2023/01/19 00:44:18;;;;;;;9.65;3.72;;;2.90;99.90;;;;;;5089875;28;20036;-88
2023/01/19 00:46:44;;;;;;;13.60;4.40;;;2.80;99.90;;;;;;5040787;28;20039;-87
2023/01/19 00:49:10;;;;;;;10.40;3.90;;;2.90;99.90;;;;;;5092070;28;20097;-87
2023/01/19 00:51:35;;;;;;;8.68;3.60;;;2.90;99.90;;;;;;5082694;28;21612;-87
2023/01/19 00:54:03;;;;;;;11.45;3.58;;;2.90;99.90;;;;;;5089921;28;20036;-86
2023/01/19 00:56:32;;;;;;;10.23;4.00;;;4.30;99.90;;;;;;5085070;28;20097;-88
2023/01/19 00:58:59;;;;;;;9.85;3.42;;;2.90;99.90;;;;;;5088484;28;20083;-86
2023/01/19 01:01:25;;;;;;;11.15;3.47;;;3.00;99.90;;;;;;5090660;28;20474;-86
2023/01/19 01:03:52;;;;;;;9.88;3.38;;;3.00;99.90;;;;;;5062737;28;20119;-85
2023/01/19 01:06:19;;;;;;;10.05;3.45;;;3.00;99.90;;;;;;5066616;28;20536;-86
2023/01/19 01:08:45;;;;;;;8.80;2.90;;;4.70;99.90;;;;;;5056426;28;20400;-87
2023/01/19 01:11:10;;;;;;;9.73;3.13;;;3.10;99.90;;;;;;5069115;28;20036;-87
2023/01/19 01:13:36;;;;;;;9.07;2.63;;;3.10;99.90;;;;;;5067071;28;20181;-86
2023/01/19 01:16:02;;;;;;;9.25;2.80;;;4.80;99.90;;;;;;5094573;28;20039;-87
2023/01/19 01:18:28;;;;;;;7.05;2.15;;;3.10;99.90;;;;;;5081472;28;20122;-87
2023/01/19 01:21:01;;;;;;;7.53;2.30;;;3.20;99.90;;;;;;5091464;28;20040;-87
2023/01/19 01:23:26;;;;;;;;;;;4.10;99.90;;;;;;5073508;28;20042;-87
2023/01/19 01:25:52;;;;;;;7.05;1.88;;;3.20;99.90;;;;;;5073266;28;19920;-86
2023/01/19 01:28:18;;;;;;;6.95;1.95;;;4.80;99.90;;;;;;5074472;28;20110;-87
2023/01/19 01:30:43;;;;;;;5.07;1.73;;;3.20;99.90;;;;;;5068276;28;20085;-87
2023/01/19 01:33:10;;;;;;;7.68;1.90;;;3.30;99.90;;;;;;5073368;28;20341;-87
2023/01/19 01:35:36;;;;;;;5.10;1.60;;;4.70;99.90;;;;;;5089822;28;20085;-87
2023/01/19 01:38:03;;;;;;;6.03;1.70;;;3.30;99.90;;;;;;5094939;28;20480;-87
2023/01/19 01:40:29;;;;;;;6.18;1.65;;;;;;;;;;5087826;28;20032;-89
2023/01/19 01:42:54;;;;;;;6.13;1.85;;;3.30;99.90;;;;;;5091274;28;20036;-86
2023/01/19 01:45:33;;;;;;;4.13;1.70;;;3.60;99.90;;;;;;5065423;28;20092;-86
2023/01/19 01:48:07;;;;;;;4.38;1.75;;;3.30;99.90;;;;;;5097266;28;20040;-88
2023/01/19 01:50:37;;;;;;;9.57;2.35;;;3.30;99.90;;;;;;5089614;28;20077;-86
2023/01/19 01:53:21;;;;;;;6.78;2.33;;;3.30;99.90;;;;;;5089230;28;20051;-88
2023/01/19 01:55:48;;;;;;;6.28;2.42;;;4.90;99.90;;;;;;5067430;28;20056;-87
2023/01/19 01:58:15;;;;;;;7.47;2.60;;;3.30;99.90;;;;;;5076607;28;20128;-87
2023/01/19 02:03:27;;;;;;;8.93;2.97;;;4.50;99.90;;;;;;5086906;28;20039;-87
2023/01/19 02:05:59;;;;;;;10.18;3.33;;;3.20;99.90;;;;;;5088702;28;20417;-87
2023/01/19 02:14:15;;;;;;;8.45;3.45;;;3.20;99.90;;;;;;5087034;28;20036;-86
2023/01/19 02:16:41;;;;;;;8.07;3.30;;;4.70;99.90;;;;;;5086899;28;20035;-86
2023/01/19 02:19:12;;;;;;;8.95;3.85;;;4.00;99.90;;;;;;5095921;28;20813;-88
2023/01/19 02:21:45;;;;;;;7.85;3.40;;;3.00;99.90;;;;;;5091702;28;20515;-87
2023/01/19 02:24:11;;;;;;;9.23;3.85;;;3.10;99.90;;;;;;5089569;28;20055;-87
2023/01/19 02:26:45;;;;;;;9.55;3.70;;;3.90;99.90;;;;;;5069775;28;20092;-88
2023/01/19 02:29:17;;;;;;;9.55;4.40;;;3.00;99.90;;;;;;5071742;28;20071;-88
2023/01/19 02:31:46;;;;;;;8.57;3.97;;;3.00;99.90;;;;;;5087060;28;20034;-86
2023/01/19 02:34:18;;;;;;;8.82;3.90;;;3.00;99.90;;;;;;5087748;28;20093;-86
2023/01/19 02:37:05;;;;;;;9.20;4.00;;;2.90;99.90;;;;;;5066165;28;20036;-88
2023/01/19 02:39:49;;;;;;;9.15;3.90;;;3.00;99.90;;;;;;5078206;28;20024;-87
2023/01/19 02:42:31;;;;;;;9.27;4.05;;;2.90;99.90;;;;;;5086514;28;20055;-87
2023/01/19 02:45:05;;;;;;;9.73;4.05;;;2.90;99.90;;;;;;5078144;28;20346;-88
2023/01/19 02:47:45;;;;;;;9.48;3.95;;;2.90;99.90;;;;;;5069551;28;20062;-88
2023/01/19 02:50:37;;;;;;;11.00;4.20;;;2.90;99.90;;;;;;5088248;28;20328;-87
2023/01/19 02:53:31;;;;;;;10.55;4.38;;;3.00;99.90;;;;;;5088881;28;20147;-87
2023/01/19 02:56:35;;;;;;;10.70;4.30;;;4.20;99.90;;;;;;5074463;28;20109;-87
2023/01/19 02:59:12;;;;;;;9.18;3.60;;;3.50;99.90;;;;;;5070646;28;20508;-88
2023/01/19 03:02:09;;;;;;;8.73;3.78;;;2.90;99.90;;;;;;5084990;28;20043;-87
2023/01/19 03:05:16;;;;;;;9.77;3.60;;;2.80;99.90;;;;;;5085276;28;20047;-87
2023/01/19 03:08:04;;;;;;;9.07;3.70;;;2.90;99.90;;;;;;5074061;28;20055;-87
2023/01/19 03:10:52;;;;;;;8.82;3.75;;;2.90;99.90;;;;;;5088248;28;20044;-88
2023/01/19 03:13:30;;;;;;;9.30;3.90;;;2.80;99.90;;;;;;5071557;28;20039;-87
2023/01/19 03:16:10;;;;;;;9.60;4.10;;;2.90;99.90;;;;;;5076499;28;20036;-88
2023/01/19 03:18:37;;;;;;;9.55;4.07;;;2.90;99.90;;;;;;5083720;28;20040;-88
2023/01/19 03:21:05;;;;;;;9.77;4.00;;;2.90;99.90;;;;;;5091107;28;20093;-89
2023/01/19 03:23:35;;;;;;;8.80;3.90;;;4.20;99.90;;;;;;5073040;28;20027;-87
2023/01/19 03:26:04;;;;;;;10.15;4.25;;;2.40;99.90;;;;;;5070570;28;20052;-87
2023/01/19 03:28:30;;;;;;;8.55;4.07;;;;;;;;;;5098867;28;20296;-89
2023/01/19 03:31:11;;;;;;;11.60;4.35;;;2.90;99.90;;;;;;5086705;28;20408;-86
2023/01/19 03:33:40;;;;;;;9.00;4.30;;;4.10;99.90;;;;;;5089351;28;20044;-86
2023/01/19 03:36:12;;;;;;;9.73;4.25;;;2.90;99.90;;;;;;5074948;28;20094;-85
2023/01/19 03:38:40;;;;;;;9.52;4.65;;;2.90;99.90;;;;;;5084282;28;20499;-87
2023/01/19 03:41:14;;;;;;;11.27;4.72;;;2.90;99.90;;;;;;5083922;28;20035;-86
2023/01/19 03:43:40;;;;;;;9.68;4.72;;;2.90;99.90;;;;;;5072124;28;20036;-87
2023/01/19 03:46:07;;;;;;;10.70;4.80;;;3.30;99.90;;;;;;5062536;28;20047;-87
2023/01/19 03:48:33;;;;;;;10.90;4.95;;;2.80;99.90;;;;;;5065154;28;20064;-87
2023/01/19 03:51:06;;;;;;;10.25;4.80;;;3.30;99.90;;;;;;5088193;28;20118;-86
2023/01/19 03:53:32;;;;;;;10.35;4.80;;;;;;;;;;5069604;28;20051;-87
2023/01/19 03:55:59;;;;;;;10.18;5.00;;;;;;;;;;5084924;28;20047;-87
2023/01/19 03:58:24;;;;;;;10.75;5.20;;;2.90;99.90;;;;;;5070807;28;20392;-87
2023/01/19 04:00:50;;;;;;;11.68;5.45;;;2.10;99.90;;;;;;5087755;28;20048;-86
2023/01/19 04:03:17;;;;;;;11.50;5.22;;;4.30;99.90;;;;;;5089974;28;20460;-87
2023/01/19 04:05:43;;;;;;;11.13;5.20;;;2.90;99.90;;;;;;5062330;28;20041;-86
2023/01/19 04:08:10;;;;;;;12.95;5.70;;;2.90;99.90;;;;;;5071846;28;20378;-89
2023/01/19 04:10:37;;;;;;;11.23;5.90;;;4.20;99.90;;;;;;5083835;28;20040;-87
2023/01/19 04:13:03;;;;;;;11.10;5.60;;;2.90;99.90;;;;;;5070677;28;20051;-87
2023/01/19 04:15:30;;;;;;;11.20;5.43;;;3.70;99.90;;;;;;5080007;28;20036;-87
2023/01/19 04:18:00;;;;;;;12.85;6.00;;;4.80;99.90;;;;;;5061507;28;20047;-87
2023/01/19 04:20:27;;;;;;;12.43;6.03;;;2.90;99.90;;;;;;5088404;28;20032;-87
2023/01/19 04:22:57;;;;;;;12.50;6.60;;;4.10;99.90;;;;;;5071104;28;20521;-89
2023/01/19 04:25:23;;;;;;;13.68;6.57;;;;;;;;;;5074165;28;20044;-86
2023/01/19 04:27:52;;;;;;;12.13;5.70;;;3.00;99.90;;;;;;5072318;28;20036;-87
2023/01/19 04:30:18;;;;;;;15.18;6.78;;;3.30;99.90;;;;;;5086186;28;20040;-88
2023/01/19 04:32:43;;;;;;;12.73;6.00;;;4.50;99.90;;;;;;5077088;28;20036;-87
2023/01/19 04:35:09;;;;;;;12.23;5.68;;;2.90;99.90;;;;;;5069166;28;20064;-87
2023/01/19 04:37:35;;;;;;;13.55;5.90;;;4.40;99.90;;;;;;5049840;28;20066;-87
2023/01/19 04:40:00;;;;;;;11.82;5.85;;;4.20;99.90;;;;;;5048789;28;20040;-87
2023/01/19 04:42:29;;;;;;;15.68;6.90;;;2.80;99.90;;;;;;5094442;28;20475;-87
2023/01/19 04:44:55;;;;;;;12.77;6.47;;;2.90;99.90;;;;;;5094970;28;20416;-88
2023/01/19 04:47:21;;;;;;;13.18;6.20;;;3.90;99.90;;;;;;5070955;28;20073;-86
2023/01/19 04:49:46;;;;;;;12.00;5.90;;;2.80;99.90;;;;;;5074575;28;20036;-88
2023/01/19 04:52:12;;;;;;;11.18;5.57;;;2.80;99.90;;;;;;5092529;28;20112;-87
2023/01/19 04:54:38;;;;;;;13.07;5.78;;;2.90;99.90;;;;;;5074277;28;20584;-87
2023/01/19 04:57:04;;;;;;;12.70;5.88;;;2.80;99.90;;;;;;5075619;28;20072;-87
2023/01/19 04:59:29;;;;;;;12.80;5.88;;;2.80;99.90;;;;;;5089633;28;20664;-86
2023/01/19 05:01:55;;;;;;;11.52;5.85;;;2.80;99.90;;;;;;5090921;28;20058;-87
2023/01/19 05:04:21;;;;;;;13.52;6.03;;;3.20;99.90;;;;;;5075900;28;20122;-88
2023/01/19 05:06:47;;;;;;;13.65;5.82;;;2.80;99.90;;;;;;5093618;28;20152;-88
2023/01/19 05:09:14;;;;;;;13.52;5.50;;;;;;;;;;5070306;28;20032;-87
2023/01/19 05:11:40;;;;;;;11.88;5.57;;;2.80;99.90;;;;;;5066239;28;20064;-87
2023/01/19 05:14:08;;;;;;;14.60;5.65;;;3.30;99.90;;;;;;5073686;28;20028;-87
2023/01/19 05:16:34;;;;;;;11.07;5.38;;;4.20;99.90;;;;;;5076668;28;20040;-88
2023/01/19 05:19:00;;;;;;;12.02;5.18;;;2.80;99.90;;;;;;5091724;28;20399;-87
2023/01/19 05:21:26;;;;;;;11.70;5.22;;;4.00;99.90;;;;;;5090805;28;20318;-88
2023/01/19 05:23:51;;;;;;;12.27;5.10;;;2.60;99.90;;;;;;5087067;28;20066;-87
2023/01/19 05:26:17;;;;;;;11.50;4.85;;;2.80;99.90;;;;;;5046933;28;20172;-88
2023/01/19 05:28:43;;;;;;;13.82;4.95;;;2.80;99.90;;;;;;5095369;28;20633;-87
2023/01/19 05:31:08;;;;;;;13.82;5.47;;;2.80;99.90;;;;;;5072334;28;20032;-87
2023/01/19 05:33:34;;;;;;;10.65;4.25;;;2.80;99.90;;;;;;5068212;28;20103;-87
2023/01/19 05:36:00;;;;;;;11.65;4.85;;;2.00;99.90;;;;;;5098771;28;20039;-87
2023/01/19 05:38:26;;;;;;;11.05;4.60;;;3.90;99.90;;;;;;5068957;28;20047;-87
2023/01/19 05:40:58;;;;;;;10.10;4.55;;;4.20;99.90;;;;;;5060682;28;20051;-87
2023/01/19 05:43:24;;;;;;;12.32;4.90;;;;;;;;;;5062517;28;20065;-87
2023/01/19 05:45:50;;;;;;;11.25;4.65;;;2.90;99.90;;;;;;5069761;28;20113;-86
2023/01/19 05:48:16;;;;;;;12.20;4.80;;;3.70;99.90;;;;;;5085411;28;20036;-87
2023/01/19 05:50:42;;;;;;;12.18;4.75;;;;;;;;;;5100778;28;20093;-86
2023/01/19 05:53:08;;;;;;;14.15;4.47;;;2.80;99.90;;;;;;5101827;28;20469;-88
2023/01/19 05:55:34;;;;;;;12.23;5.10;;;4.40;99.90;;;;;;5074561;28;20114;-87
2023/01/19 05:58:00;;;;;;;12.32;4.72;;;4.40;99.90;;;;;;5077464;28;20039;-86
2023/01/19 06:00:26;;;;;;;11.98;4.57;;;2.90;99.90;;;;;;5075581;28;20044;-87
2023/01/19 06:02:52;;;;;;;10.50;4.40;;;2.90;99.90;;;;;;5064358;28;20504;-87
2023/01/19 06:05:18;;;;;;;12.82;3.83;;;1.30;99.90;;;;;;5088758;28;20795;-87
2023/01/19 06:07:44;;;;;;;13.23;2.92;;;3.00;99.90;;;;;;5079203;28;20035;-86
2023/01/19 06:10:10;;;;;;;8.70;2.22;;;3.00;99.90;;;;;;5065609;28;20176;-88
2023/01/19 06:12:40;;;;;;;7.55;2.10;;;3.00;99.90;;;;;;5096033;28;20085;-88
2023/01/19 06:15:06;;;;;;;8.98;2.08;;;3.00;99.90;;;;;;5098810;28;20047;-86
2023/01/19 06:17:32;;;;;;;8.30;1.90;;;3.10;99.90;;;;;;5078891;28;20467;-87
2023/01/19 06:19:58;;;;;;;7.43;1.80;;;3.10;99.90;;;;;;5080096;28;20039;-89
2023/01/19 06:22:23;;;;;;;7.72;1.70;;;3.10;99.90;;;;;;5083367;28;20571;-88
2023/01/19 06:24:49;;;;;;;9.43;2.00;;;3.10;99.90;;;;;;5073403;28;20292;-87
2023/01/19 06:27:15;;;;;;;8.40;2.00;;;3.10;99.90;;;;;;5095935;28;20058;-87
2023/01/19 06:29:41;;;;;;;8.43;1.50;;;3.20;99.90;;;;;;5060103;28;20031;-89
2023/01/19 06:32:07;;;;;;;8.75;1.75;;;3.30;99.90;;;;;;5065787;28;20053;-88
2023/01/19 06:34:33;;;;;;;7.97;1.83;;;3.40;99.90;;;;;;5097148;28;20035;-89
2023/01/19 06:36:58;;;;;;;8.00;1.60;;;3.50;99.90;;;;;;5071796;28;20539;-88
2023/01/19 06:39:24;;;;;;;5.20;1.30;;;3.50;99.90;;;;;;5060958;28;20043;-87
2023/01/19 06:41:50;;;;;;;10.85;1.70;;;3.60;99.90;;;;;;5084374;28;20071;-87
2023/01/19 06:44:16;;;;;;;8.40;1.80;;;3.70;99.90;;;;;;5071009;28;20036;-86
2023/01/19 06:46:42;;;;;;;9.88;1.80;;;3.80;99.90;;;;;;5064769;28;20035;-87
2023/01/19 06:49:07;;;;;;;11.63;1.75;;;5.60;99.90;;;;;;5066701;28;20097;-86
2023/01/19 06:51:33;;;;;;;10.05;1.70;;;5.20;99.90;;;;;;5051100;28;21942;-88
2023/01/19 06:53:59;;;;;;;8.55;2.00;;;3.80;99.90;;;;;;5062229;28;20568;-88
2023/01/19 06:56:25;;;;;;;6.63;1.50;;;3.60;99.90;;;;;;5066305;28;20457;-88
2023/01/19 06:58:52;;;;;;;6.15;1.40;;;5.40;99.90;;;;;;5074993;28;20077;-87
2023/01/19 07:01:18;;;;;;;8.63;1.50;;;3.50;99.90;;;;;;5078163;28;20600;-87
2023/01/19 07:03:44;;;;;;;7.65;1.85;;;5.00;99.90;;;;;;5079485;28;20043;-87
2023/01/19 07:06:09;;;;;;;6.68;1.88;;;3.40;99.90;;;;;;5096569;28;20035;-87
2023/01/19 07:08:36;;;;;;;11.68;1.83;;;3.40;99.90;;;;;;5066261;28;20038;-88
2023/01/19 07:11:05;;;;;;;11.13;1.92;;;3.10;99.90;;;;;;5073640;28;20040;-85
2023/01/19 07:13:34;;;;;;;9.52;2.05;;;3.10;99.90;;;;;;5068634;28;20047;-87
2023/01/19 07:16:08;;;;;;;7.68;1.85;;;4.50;99.90;;;;;;5079934;28;20054;-86
2023/01/19 07:18:35;;;;;;;13.15;1.83;;;3.20;99.90;;;;;;5085534;28;20039;-86
2023/01/19 07:21:01;;;;;;;10.32;2.13;;;3.20;99.90;;;;;;5075854;28;20035;-85
2023/01/19 07:23:29;;;;;;;8.73;2.00;;;5.00;99.90;;;;;;5074497;28;20795;-84
2023/01/19 07:26:00;;;;;;;15.20;2.10;;;3.50;99.90;;;;;;5074049;28;20048;-85
2023/01/19 07:28:27;;;;;;;9.27;1.80;;;3.20;99.90;;;;;;5075415;28;20040;-87
2023/01/19 07:30:53;;;;;;;14.02;2.25;;;4.50;99.90;;;;;;5074705;28;20407;-85
2023/01/19 07:33:21;;;;;;;8.60;1.83;;;4.10;99.90;;;;;;5096020;28;20035;-86
2023/01/19 07:35:50;;;;;;;8.93;1.98;;;3.30;99.90;;;;;;5073772;28;20044;-88
2023/01/19 07:38:17;;;;;;;8.98;2.25;;;4.40;99.90;;;;;;5094006;28;20063;-84
2023/01/19 07:40:45;;;;;;;12.13;2.10;;;3.30;99.90;;;;;;5095678;28;20122;-86
2023/01/19 07:43:12;;;;;;;12.18;2.13;;;4.10;99.90;;;;;;5073530;28;20046;-87
2023/01/19 07:45:38;;;;;;;11.88;1.92;;;3.40;99.90;;;;;;5092462;28;20547;-84
2023/01/19 07:48:04;;;;;;;11.40;2.08;;;4.70;99.90;;;;;;5094962;28;20273;-84
2023/01/19 07:50:30;;;;;;;11.65;2.00;;;3.40;99.90;;;;;;5078371;28;20114;-86
2023/01/19 07:52:56;;;;;;;11.98;2.25;;;3.40;99.90;;;;;;5080766;28;20563;-84
2023/01/19 07:55:23;;;;;;;13.20;2.30;;;3.40;99.90;;;;;;5080583;28;20149;-84
2023/01/19 07:57:50;;;;;;;11.73;2.00;;;5.00;99.90;;;;;;5075245;28;20043;-84
2023/01/19 08:00:23;;;;;;;10.73;2.10;;;3.50;99.90;;;;;;5061506;28;20039;-88
2023/01/19 08:02:50;;;;;;;;;;;3.50;99.90;;;;;;5087367;28;20123;-85
2023/01/19 08:05:19;;;;;;;14.98;3.08;;;5.20;99.90;;;;;;5083711;28;19920;-87
2023/01/19 08:07:45;;;;;;;10.10;2.28;;;3.60;99.90;;;;;;5064184;28;20040;-87
2023/01/19 08:10:13;;;;;;;11.90;2.67;;;5.20;99.90;;;;;;5084777;28;20395;-86
2023/01/19 08:12:40;;;;;;;18.67;2.20;;;3.70;99.90;;;;;;5082379;28;20576;-86
2023/01/19 08:15:07;;;;;;;13.65;2.20;;;3.80;99.90;;;;;;5080215;28;20190;-85
2023/01/19 08:17:33;;;;;;;15.30;2.63;;;3.80;99.90;;;;;;5084364;28;20036;-87
2023/01/19 08:19:59;;;;;;;13.77;2.38;;;3.80;99.90;;;;;;5070048;28;20067;-86
2023/01/19 08:22:25;;;;;;;16.65;2.60;;;3.80;99.90;;;;;;5068483;28;20066;-86
2023/01/19 08:24:50;;;;;;;11.75;1.98;;;3.80;99.90;;;;;;5076034;28;20130;-88
2023/01/19 08:27:16;;;;;;;16.15;2.15;;;3.80;99.90;;;;;;5083846;28;20276;-87
2023/01/19 08:29:42;;;;;;;11.63;2.28;;;3.90;99.90;;;;;;5073762;28;20031;-86
2023/01/19 08:32:08;;;;;;;8.93;2.10;;;3.90;99.90;;;;;;5042539;28;20501;-88
2023/01/19 08:34:34;;;;;;;10.43;2.33;;;3.90;99.90;;;;;;5076838;28;20063;-87
2023/01/19 08:37:00;;;;;;;15.77;2.63;;;5.00;99.90;;;;;;5066507;28;20483;-87
2023/01/19 08:39:26;;;;;;;15.82;2.85;;;4.00;99.90;;;;;;5080790;28;20032;-87
2023/01/19 08:41:52;;;;;;;14.07;2.10;;;4.00;99.90;;;;;;5093007;28;20427;-88
2023/01/19 08:44:18;;;;;;;12.77;2.65;;;5.10;99.90;;;;;;5114152;27;20114;-85
2023/01/19 08:46:44;;;;;;;16.30;2.88;;;4.10;99.90;;;;;;5068747;28;20133;-85
2023/01/19 08:49:10;;;;;;;10.82;1.90;;;5.70;99.90;;;;;;5094810;28;21286;-86
2023/01/19 08:51:36;;;;;;;14.27;2.30;;;4.10;99.90;;;;;;5079804;28;20598;-85
2023/01/19 08:54:03;;;;;;;15.13;2.92;;;3.80;99.90;;;;;;5077964;28;20441;-89
2023/01/19 08:56:29;;;;;;;11.63;2.03;;;4.20;99.90;;;;;;5100762;28;20071;-86
2023/01/19 08:58:54;;;;;;;14.48;2.45;;;4.90;99.90;;;;;;5079892;28;20076;-86
2023/01/19 09:01:21;;;;;;;16.70;2.60;;;5.00;99.90;;;;;;5074593;28;20032;-85
2023/01/19 09:03:47;;;;;;;12.90;2.70;;;4.40;99.90;;;;;;5100861;28;20043;-84
2023/01/19 09:06:15;;;;;;;11.70;2.47;;;5.40;99.90;;;;;;5063621;28;20040;-87
2023/01/19 09:08:42;;;;;;;12.98;2.60;;;5.10;99.90;;;;;;5078716;28;20044;-86
2023/01/19 09:11:13;;;;;;;9.52;2.10;;;4.60;99.90;;;;;;5097491;28;20555;-86
2023/01/19 09:13:40;;;;;;;14.85;2.78;;;5.50;99.90;;;;;;5083108;28;20429;-85
2023/01/19 09:16:07;;;;;;;14.18;2.22;;;4.70;99.90;;;;;;5075633;28;20044;-86
2023/01/19 09:18:34;;;;;;;10.65;2.30;;;4.80;99.90;;;;;;5097205;28;20066;-85
2023/01/19 09:21:00;;;;;;;14.80;2.50;;;4.80;99.90;;;;;;5097086;28;20411;-87
2023/01/19 09:23:27;;;;;;;12.65;2.28;;;6.60;99.90;;;;;;5097656;28;20031;-88
2023/01/19 09:26:01;;;;;;;11.82;2.70;;;4.70;99.90;;;;;;5083501;28;20031;-86
2023/01/19 09:28:31;;;;;;;15.00;2.67;;;4.70;99.90;;;;;;5072608;28;20507;-87
2023/01/19 09:30:56;;;;;;;13.32;2.55;;;5.00;99.90;;;;;;5064685;28;20097;-83
2023/01/19 09:33:23;;;;;;;13.23;2.38;;;5.10;99.90;;;;;;5076509;28;20032;-86
2023/01/19 09:35:50;;;;;;;13.15;2.42;;;4.40;99.90;;;;;;5098851;28;20128;-84
2023/01/19 09:38:17;;;;;;;13.55;2.50;;;4.20;99.90;;;;;;5064412;28;20036;-86
2023/01/19 09:40:50;;;;;;;14.80;2.60;;;4.20;99.90;;;;;;5080499;28;20043;-87
2023/01/19 09:43:35;;;;;;;15.10;2.90;;;6.10;99.90;;;;;;5075077;28;20032;-88
2023/01/19 09:46:05;;;;;;;13.98;2.80;;;4.20;99.90;;;;;;5091169;28;20050;-87
2023/01/19 09:48:46;;;;;;;17.15;3.22;;;4.10;99.90;;;;;;5077373;28;20089;-85
2023/01/19 09:51:26;;;;;;;15.70;2.55;;;4.10;99.90;;;;;;5100173;28;20047;-86
2023/01/19 09:54:09;;;;;;;12.07;2.08;;;4.10;99.90;;;;;;5077145;28;20247;-86
2023/01/19 09:56:35;;;;;;;15.73;3.13;;;4.20;99.90;;;;;;5088164;28;20107;-87
2023/01/19 09:59:30;;;;;;;11.65;2.47;;;4.20;99.90;;;;;;5059946;28;20464;-84
2023/01/19 10:01:55;;;;;;;14.75;2.38;;;4.30;99.90;;;;;;5101314;28;20531;-86
2023/01/19 10:04:37;;;;;;;11.00;2.30;;;4.40;99.90;;;;;;5076316;28;20039;-88
2023/01/19 10:07:30;;;;;;;14.45;2.20;;;4.50;99.90;;;;;;5071870;28;20039;-86
2023/01/19 10:10:23;;;;;;;10.82;1.80;;;4.40;99.90;;;;;;5098046;28;20040;-86
2023/01/19 10:13:28;;;;;;;11.57;2.20;;;4.50;99.90;;;;;;5096191;28;20031;-84
2023/01/19 10:16:01;;;;;;;11.32;2.33;;;4.60;99.90;;;;;;5073887;28;20071;-86
2023/01/19 10:18:47;;;;;;;11.18;2.30;;;4.70;99.90;;;;;;5093085;28;20177;-89
2023/01/19 10:21:30;;;;;;;9.52;1.95;;;4.70;99.90;;;;;;5080954;28;20039;-87
2023/01/19 10:24:14;;;;;;;12.90;2.63;;;4.80;99.90;;;;;;5078609;28;20152;-86
2023/01/19 10:26:51;;;;;;;11.45;2.47;;;4.80;99.90;;;;;;5093933;28;20046;-88
2023/01/19 10:29:36;;;;;;;14.80;2.28;;;6.20;99.90;;;;;;5075405;28;20040;-85
2023/01/19 10:32:25;;;;;;;10.27;2.40;;;4.90;99.90;;;;;;5077657;28;20036;-86
2023/01/19 10:34:52;;;;;;;10.45;2.10;;;4.90;99.90;;;;;;5072086;28;20080;-88
2023/01/19 10:37:21;;;;;;;9.90;2.10;;;5.00;99.90;;;;;;5097537;28;20518;-86
2023/01/19 10:39:57;;;;;;;16.83;2.33;;;5.00;99.90;;;;;;5092154;28;20105;-86
2023/01/19 10:42:26;;;;;;;10.95;2.28;;;5.10;99.90;;;;;;5076051;28;20431;-86
2023/01/19 10:44:51;;;;;;;13.45;2.45;;;6.50;99.90;;;;;;5064494;28;20048;-85
2023/01/19 10:47:20;;;;;;;12.30;2.47;;;5.20;99.90;;;;;;5071087;28;20046;-87
2023/01/19 10:49:47;;;;;;;9.88;2.25;;;5.90;99.90;;;;;;5093983;28;20035;-86
2023/01/19 10:52:34;;;;;;;14.05;2.60;;;6.00;99.90;;;;;;5074527;28;20509;-86
2023/01/19 10:55:03;;;;;;;12.35;2.20;;;5.30;99.90;;;;;;5072239;28;20055;-86
2023/01/19 10:57:37;;;;;;;13.43;2.38;;;5.40;99.90;;;;;;5093801;28;20100;-86
2023/01/19 11:00:06;;;;;;;12.15;2.08;;;5.40;99.90;;;;;;5091222;28;20126;-85
2023/01/19 11:02:32;;;;;;;13.48;2.70;;;5.40;99.90;;;;;;5059417;28;20051;-85
2023/01/19 11:05:00;;;;;;;14.85;2.20;;;6.60;99.90;;;;;;5066999;28;20063;-86
2023/01/19 11:07:29;;;;;;;11.10;2.15;;;6.70;99.90;;;;;;5098496;28;20307;-84
2023/01/19 11:10:16;;;;;;;11.82;2.55;;;6.50;99.90;;;;;;5067160;28;20028;-88
2023/01/19 11:12:43;;;;;;;13.50;1.92;;;5.50;99.90;;;;;;5081750;28;20038;-87
2023/01/19 11:15:24;;;;;;;12.77;2.20;;;5.50;99.90;;;;;;5077680;28;20412;-85
2023/01/19 11:17:51;;;;;;;13.90;2.33;;;5.60;99.90;;;;;;5073106;28;20059;-86
2023/01/19 11:20:24;;;;;;;13.52;2.50;;;6.80;99.90;;;;;;5058810;28;20507;-86
2023/01/19 11:23:08;;;;;;;;;;;5.60;99.90;;;;;;5075732;28;20048;-86
2023/01/19 11:25:35;;;;;;;11.38;1.98;;;5.60;99.90;;;;;;5077034;28;19930;-86
2023/01/19 11:28:02;;;;;;;11.90;2.22;;;5.60;99.90;;;;;;5091980;28;20366;-87
2023/01/19 11:30:29;;;;;;;12.05;2.05;;;5.60;99.90;;;;;;5079682;28;20194;-88
2023/01/19 11:32:55;;;;;;;9.80;1.80;;;5.60;99.90;;;;;;5088645;28;20031;-85
2023/01/19 11:35:48;;;;;;;11.27;2.17;;;5.70;99.90;;;;;;5098393;28;20072;-88
2023/01/19 11:38:19;;;;;;;;;;;7.20;99.90;;;;;;5071533;28;20048;-88
2023/01/19 11:40:57;;;;;;;14.73;2.30;;;5.70;99.90;;;;;;5079809;28;19927;-88
2023/01/19 11:43:27;;;;;;;10.27;2.08;;;5.80;99.90;;;;;;5081036;28;20040;-89
2023/01/19 11:45:54;;;;;;;11.48;2.40;;;7.40;99.90;;;;;;5078730;28;20122;-87
2023/01/19 11:48:36;;;;;;;11.23;2.05;;;6.00;99.90;;;;;;5095459;28;20074;-88
2023/01/19 11:51:05;;;;;;;13.57;2.30;;;6.20;99.90;;;;;;5090175;28;20040;-89
2023/01/19 11:53:35;;;;;;;12.77;3.05;;;6.20;99.90;;;;;;5080365;28;20059;-88
2023/01/19 11:56:08;;;;;;;14.35;2.50;;;6.90;99.90;;;;;;5093912;28;20147;-86
2023/01/19 11:58:40;;;;;;;10.90;1.80;;;6.40;99.90;;;;;;5100448;28;20496;-87
2023/01/19 12:01:33;;;;;;;12.55;2.20;;;7.30;99.90;;;;;;5078042;28;20043;-86
2023/01/19 12:04:14;;;;;;;11.18;2.58;;;6.40;99.90;;;;;;5099736;28;20031;-87
2023/01/19 12:06:48;;;;;;;10.77;2.20;;;6.30;99.90;;;;;;5088149;28;20043;-85
2023/01/19 12:09:19;;;;;;;11.73;2.25;;;4.00;99.90;;;;;;5080810;28;20051;-85
2023/01/19 12:11:54;;;;;;;11.52;2.60;;;6.40;99.90;;;;;;5076107;28;20396;-85
2023/01/19 12:14:36;;;;;;;15.05;2.42;;;6.40;99.90;;;;;;5075240;28;20086;-87
2023/01/19 12:17:09;;;;;;;11.50;2.20;;;6.50;99.90;;;;;;5076980;28;20089;-87
2023/01/19 12:19:38;;;;;;;;;;;7.10;99.90;;;;;;5101960;28;20048;-87
2023/01/19 12:22:04;;;;;;;15.25;4.82;;;6.20;99.90;;;;;;5095636;28;20369;-86
2023/01/19 12:24:39;;;;;;;20.77;6.75;;;6.10;99.90;;;;;;5064869;28;20039;-85
2023/01/19 12:27:30;;;;;;;17.23;5.18;;;6.00;99.90;;;;;;5079469;28;20194;-86
2023/01/19 12:29:56;;;;;;;11.18;2.38;;;5.90;99.90;;;;;;5085251;28;20027;-87
2023/01/19 12:32:33;;;;;;;10.52;2.10;;;6.80;99.90;;;;;;5054258;28;20114;-88
2023/01/19 12:34:58;;;;;;;10.85;2.00;;;5.60;99.90;;;;;;5085909;28;20036;-87
2023/01/19 12:37:44;;;;;;;10.43;2.33;;;6.30;99.90;;;;;;5067925;28;20274;-87
2023/01/19 12:40:34;;;;;;;12.13;2.20;;;6.00;99.90;;;;;;5063251;28;20488;-88
2023/01/19 12:43:03;;;;;;;8.57;2.05;;;5.50;99.90;;;;;;5089770;28;20040;-87
2023/01/19 12:45:34;;;;;;;13.95;2.22;;;6.40;99.90;;;;;;5080196;28;20090;-87
2023/01/19 12:48:02;;;;;;;11.55;1.85;;;7.00;99.90;;;;;;5081503;28;20050;-86
2023/01/19 12:50:36;;;;;;;11.98;2.00;;;7.20;99.90;;;;;;5063974;28;20551;-87
2023/01/19 12:53:07;;;;;;;10.38;2.03;;;5.30;99.90;;;;;;5094497;28;20059;-86
2023/01/19 12:55:37;;;;;;;9.70;2.03;;;5.80;99.90;;;;;;5075644;28;20514;-85
2023/01/19 12:58:17;;;;;;;10.57;1.90;;;5.80;99.90;;;;;;5070051;28;20436;-85
2023/01/19 13:00:45;;;;;;;8.38;1.60;;;5.90;99.90;;;;;;5080764;28;20051;-88
2023/01/19 13:03:17;;;;;;;8.27;1.90;;;6.00;99.90;;;;;;5074298;28;20047;-86
2023/01/19 13:05:43;;;;;;;10.07;1.60;;;6.00;99.90;;;;;;5083126;28;20396;-86
2023/01/19 13:08:08;;;;;;;9.18;1.55;;;7.00;99.90;;;;;;5082786;28;20051;-86
2023/01/19 13:11:04;;;;;;;9.15;1.75;;;6.10;99.90;;;;;;5077414;28;20027;-87
2023/01/19 13:13:37;;;;;;;7.57;1.85;;;6.00;99.90;;;;;;5089116;28;20039;-87
2023/01/19 13:16:18;;;;;;;;;;;5.90;99.90;;;;;;5098397;28;20044;-85
2023/01/19 13:18:53;;;;;;;10.68;1.95;;;5.80;99.90;;;;;;5095870;28;20074;-87
2023/01/19 13:21:39;;;;;;;7.97;1.70;;;5.70;99.90;;;;;;5087791;28;20066;-85